Time;durP1;ratioP1;P1;durP2;ratioP2;P2;SDS_P1;SDS_P2;PMS_P1;PMS_P2;Temp;Humidity;BMP_temperature;BMP_pressure;BME280_temperature;BME280_humidity;BME280_pressure;Samples;Min_cycle;Max_cycle;Signal;HPM_P1;HPM_P2
2023/12/29 00:00:10;;;;;;;22.93;15.30;;;;;;;;;;761167;181;921102;-60
2023/12/29 00:02:36;;;;;;;29.90;16.13;;;;;;;;;;759051;181;973885;-68
2023/12/29 00:05:02;;;;;;;25.23;15.07;;;;;;;;;;753900;184;890721;-67
2023/12/29 00:07:28;;;;;;;23.60;14.90;;;;;;;;;;759171;180;911527;-60
2023/12/29 00:09:54;;;;;;;27.03;14.63;;;;;;;;;;763502;182;910316;-67
2023/12/29 00:12:20;;;;;;;23.97;12.83;;;;;;;;;;765103;181;916681;-60
2023/12/29 00:14:46;;;;;;;20.70;12.33;;;;;;;;;;754740;182;870791;-61
2023/12/29 00:17:11;;;;;;;20.80;12.70;;;;;;;;;;761323;181;816101;-69
2023/12/29 00:19:37;;;;;;;22.30;12.60;;;;;;;;;;759500;181;922133;-67
2023/12/29 00:22:03;;;;;;;18.80;11.80;;;;;;;;;;757760;182;919183;-60
2023/12/29 00:24:31;;;;;;;20.50;12.43;;;;;;;;;;756633;184;918165;-68
2023/12/29 00:26:55;;;;;;;19.43;11.60;;;;;;;;;;745011;186;919812;-67
2023/12/29 00:29:21;;;;;;;22.55;13.02;;;;;;;;;;752514;185;863106;-69
2023/12/29 00:31:47;;;;;;;20.33;13.30;;;;;;;;;;748444;185;922849;-61
2023/12/29 00:34:12;;;;;;;18.12;11.70;;;;;;;;;;741431;186;918797;-60
2023/12/29 00:36:38;;;;;;;21.23;12.97;;;;;;;;;;761373;178;919133;-60
2023/12/29 00:39:04;;;;;;;18.70;11.70;;;;;;;;;;758058;183;910876;-60
2023/12/29 00:41:30;;;;;;;16.63;12.00;;;;;;;;;;758312;182;918983;-70
2023/12/29 00:43:56;;;;;;;20.03;11.27;;;;;;;;;;754195;182;918377;-60
2023/12/29 00:46:22;;;;;;;23.00;12.97;;;;;;;;;;755961;182;928065;-60
2023/12/29 00:48:47;;;;;;;18.75;11.93;;;;;;;;;;761724;182;919119;-67
2023/12/29 00:51:13;;;;;;;18.43;12.50;;;;;;;;;;753117;183;919159;-60
2023/12/29 00:53:39;;;;;;;17.35;12.13;;;;;;;;;;755520;183;918845;-59
2023/12/29 00:56:10;;;;;;;17.83;10.60;;;;;;;;;;762030;182;916959;-59
2023/12/29 00:58:36;;;;;;;20.90;12.53;;;;;;;;;;741762;185;923075;-60
2023/12/29 01:01:02;;;;;;;22.30;12.47;;;;;;;;;;764697;181;816004;-60
2023/12/29 01:03:27;;;;;;;17.23;10.63;;;;;;;;;;757943;181;919516;-60
2023/12/29 01:05:53;;;;;;;14.43;10.80;;;;;;;;;;760620;178;919648;-60
2023/12/29 01:08:19;;;;;;;19.73;12.53;;;;;;;;;;754236;181;921116;-67
2023/12/29 01:10:45;;;;;;;24.33;13.37;;;;;;;;;;753882;182;823774;-60
2023/12/29 01:13:11;;;;;;;18.57;12.03;;;;;;;;;;763074;182;919306;-68
2023/12/29 01:15:37;;;;;;;21.57;11.07;;;;;;;;;;754021;182;923041;-68
2023/12/29 01:18:03;;;;;;;20.53;11.60;;;;;;;;;;756728;181;917517;-60
2023/12/29 01:20:29;;;;;;;18.87;12.90;;;;;;;;;;757321;182;942851;-60
2023/12/29 01:22:54;;;;;;;18.40;11.07;;;;;;;;;;752109;185;813119;-68
2023/12/29 01:25:20;;;;;;;17.30;11.90;;;;;;;;;;756815;181;915387;-67
2023/12/29 01:27:46;;;;;;;16.67;11.00;;;;;;;;;;752328;184;918531;-60
2023/12/29 01:30:12;;;;;;;22.57;12.33;;;;;;;;;;740023;189;917725;-60
2023/12/29 01:32:38;;;;;;;19.40;11.87;;;;;;;;;;754463;181;918771;-67
2023/12/29 01:35:04;;;;;;;17.30;11.30;;;;;;;;;;753960;181;918373;-68
2023/12/29 01:37:30;;;;;;;15.97;10.83;;;;;;;;;;757629;181;823790;-60
2023/12/29 01:39:56;;;;;;;18.27;11.97;;;;;;;;;;731426;190;918480;-68
2023/12/29 01:42:22;;;;;;;19.43;11.37;;;;;;;;;;760114;182;816684;-67
2023/12/29 01:44:51;;;;;;;15.13;10.97;;;;;;;;;;758927;182;914735;-68
2023/12/29 01:47:14;;;;;;;22.97;12.37;;;;;;;;;;757365;181;911184;-60
2023/12/29 01:49:39;;;;;;;18.37;11.57;;;;;;;;;;754110;182;912830;-68
2023/12/29 01:52:05;;;;;;;19.63;13.23;;;;;;;;;;755423;184;916369;-67
2023/12/29 01:54:31;;;;;;;20.57;12.00;;;;;;;;;;761673;180;816764;-68
2023/12/29 01:56:57;;;;;;;25.57;13.07;;;;;;;;;;753585;182;918863;-59
2023/12/29 01:59:23;;;;;;;18.77;12.07;;;;;;;;;;744522;182;918456;-60
2023/12/29 02:01:49;;;;;;;18.80;12.83;;;;;;;;;;764242;181;816574;-67
2023/12/29 02:04:14;;;;;;;19.93;12.57;;;;;;;;;;745531;185;920916;-60
2023/12/29 02:06:41;;;;;;;21.43;13.33;;;;;;;;;;749379;184;920170;-60
2023/12/29 02:09:06;;;;;;;23.00;13.47;;;;;;;;;;751964;186;916704;-67
2023/12/29 02:11:32;;;;;;;18.50;13.10;;;;;;;;;;750648;182;922917;-69
2023/12/29 02:13:58;;;;;;;25.67;14.17;;;;;;;;;;752765;182;918810;-68
2023/12/29 02:16:26;;;;;;;24.17;14.80;;;;;;;;;;762820;182;918670;-60
2023/12/29 02:18:51;;;;;;;23.57;14.20;;;;;;;;;;765248;182;917920;-67
2023/12/29 02:21:17;;;;;;;24.10;14.70;;;;;;;;;;763328;181;922570;-68
2023/12/29 02:23:43;;;;;;;21.17;13.60;;;;;;;;;;759157;183;717559;-67
2023/12/29 02:26:09;;;;;;;25.90;15.13;;;;;;;;;;761065;181;816885;-60
2023/12/29 02:28:35;;;;;;;20.30;12.90;;;;;;;;;;764445;181;919447;-67
2023/12/29 02:31:00;;;;;;;22.50;13.20;;;;;;;;;;755491;184;919603;-60
2023/12/29 02:33:26;;;;;;;23.50;13.80;;;;;;;;;;758624;183;880656;-60
2023/12/29 02:35:52;;;;;;;23.63;14.23;;;;;;;;;;764916;181;880043;-60
2023/12/29 02:38:18;;;;;;;21.63;13.17;;;;;;;;;;757850;181;923466;-68
2023/12/29 02:40:44;;;;;;;21.00;14.10;;;;;;;;;;763558;180;919357;-67
2023/12/29 02:43:10;;;;;;;23.53;14.70;;;;;;;;;;760804;181;924182;-60
2023/12/29 02:45:35;;;;;;;29.80;14.40;;;;;;;;;;745509;186;818002;-67
2023/12/29 02:48:01;;;;;;;24.27;15.20;;;;;;;;;;757465;181;919055;-67
2023/12/29 02:50:27;;;;;;;19.30;13.80;;;;;;;;;;772789;181;919308;-67
2023/12/29 02:52:53;;;;;;;27.77;14.30;;;;;;;;;;755072;178;919775;-68
2023/12/29 02:55:19;;;;;;;21.07;13.10;;;;;;;;;;753777;181;904154;-61
2023/12/29 02:57:45;;;;;;;27.90;13.80;;;;;;;;;;761682;178;903380;-61
2023/12/29 03:00:11;;;;;;;26.85;14.43;;;;;;;;;;756760;181;942331;-67
2023/12/29 03:02:37;;;;;;;22.00;13.43;;;;;;;;;;757355;181;919549;-61
2023/12/29 03:05:03;;;;;;;23.70;13.73;;;;;;;;;;760996;181;804786;-60
2023/12/29 03:07:29;;;;;;;19.73;11.43;;;;;;;;;;754174;182;914503;-61
2023/12/29 03:09:55;;;;;;;20.80;11.63;;;;;;;;;;729977;191;720397;-67
2023/12/29 03:12:20;;;;;;;15.50;11.53;;;;;;;;;;752858;183;880392;-61
2023/12/29 03:14:47;;;;;;;19.20;12.35;;;;;;;;;;761821;181;914589;-67
2023/12/29 03:17:12;;;;;;;18.37;11.20;;;;;;;;;;753368;182;930915;-68
2023/12/29 03:19:38;;;;;;;19.20;10.43;;;;;;;;;;755280;182;919860;-69
2023/12/29 03:22:04;;;;;;;15.93;9.43;;;;;;;;;;760984;182;819628;-60
2023/12/29 03:24:30;;;;;;;15.15;10.05;;;;;;;;;;751546;183;919606;-60
2023/12/29 03:26:56;;;;;;;16.27;10.03;;;;;;;;;;752145;184;1046491;-68
2023/12/29 03:29:21;;;;;;;16.00;10.87;;;;;;;;;;763424;181;915660;-60
2023/12/29 03:31:47;;;;;;;20.90;11.87;;;;;;;;;;750738;183;912114;-68
2023/12/29 03:34:13;;;;;;;15.50;10.77;;;;;;;;;;736158;188;848897;-68
2023/12/29 03:36:39;;;;;;;16.62;10.82;;;;;;;;;;735533;187;919191;-67
2023/12/29 03:39:05;;;;;;;15.97;10.63;;;;;;;;;;728982;188;918729;-68
2023/12/29 03:41:31;;;;;;;18.47;11.33;;;;;;;;;;732313;186;917391;-67
2023/12/29 03:43:57;;;;;;;16.80;11.50;;;;;;;;;;754953;181;921276;-60
2023/12/29 03:46:22;;;;;;;20.10;11.13;;;;;;;;;;760091;182;928104;-60
2023/12/29 03:48:48;;;;;;;15.40;10.33;;;;;;;;;;765239;181;918844;-60
2023/12/29 03:51:14;;;;;;;16.20;10.17;;;;;;;;;;758832;180;918657;-68
2023/12/29 03:53:40;;;;;;;17.30;10.43;;;;;;;;;;758374;184;925884;-67
2023/12/29 03:56:07;;;;;;;22.10;10.90;;;;;;;;;;748902;186;815474;-61
2023/12/29 03:58:33;;;;;;;20.60;12.00;;;;;;;;;;751644;185;810280;-60
2023/12/29 04:00:58;;;;;;;21.50;12.83;;;;;;;;;;755517;185;816054;-60
2023/12/29 04:03:24;;;;;;;22.57;13.77;;;;;;;;;;758023;181;918173;-68
2023/12/29 04:05:50;;;;;;;22.10;12.70;;;;;;;;;;765197;181;918388;-63
2023/12/29 04:08:16;;;;;;;24.70;12.53;;;;;;;;;;752375;183;919294;-70
2023/12/29 04:10:42;;;;;;;23.50;13.50;;;;;;;;;;743799;186;918085;-60
2023/12/29 04:13:08;;;;;;;22.47;14.33;;;;;;;;;;753813;183;918518;-60
2023/12/29 04:15:33;;;;;;;19.92;14.32;;;;;;;;;;759545;182;919574;-67
2023/12/29 04:17:59;;;;;;;24.02;15.52;;;;;;;;;;760316;181;818637;-68
2023/12/29 04:20:26;;;;;;;18.83;12.37;;;;;;;;;;752637;183;918635;-60
2023/12/29 04:22:51;;;;;;;25.33;14.90;;;;;;;;;;758835;181;876482;-60
2023/12/29 04:25:17;;;;;;;25.37;15.50;;;;;;;;;;763970;181;917814;-60
2023/12/29 04:27:43;;;;;;;24.90;14.53;;;;;;;;;;754960;181;817409;-60
2023/12/29 04:30:09;;;;;;;24.10;14.60;;;;;;;;;;764862;181;816588;-60
2023/12/29 04:32:35;;;;;;;22.30;15.50;;;;;;;;;;757810;181;916965;-63
2023/12/29 04:35:01;;;;;;;25.17;14.80;;;;;;;;;;755512;183;872142;-70
2023/12/29 04:37:26;;;;;;;23.50;13.57;;;;;;;;;;751224;183;919585;-71
2023/12/29 04:39:53;;;;;;;22.33;14.03;;;;;;;;;;755216;182;918742;-63
2023/12/29 04:42:18;;;;;;;26.23;15.00;;;;;;;;;;758568;182;918099;-63
2023/12/29 04:44:44;;;;;;;20.90;14.03;;;;;;;;;;764406;181;915990;-68
2023/12/29 04:47:10;;;;;;;21.47;14.20;;;;;;;;;;753049;183;917722;-61
2023/12/29 04:49:36;;;;;;;23.30;14.00;;;;;;;;;;761275;184;828856;-68
2023/12/29 04:52:02;;;;;;;25.67;16.23;;;;;;;;;;763205;181;917409;-61
2023/12/29 04:54:28;;;;;;;21.10;13.63;;;;;;;;;;748203;185;906308;-60
2023/12/29 04:56:53;;;;;;;21.80;16.10;;;;;;;;;;755915;185;927470;-68
2023/12/29 04:59:19;;;;;;;22.83;14.10;;;;;;;;;;759660;182;918882;-68
2023/12/29 05:01:45;;;;;;;25.95;13.23;;;;;;;;;;756883;181;817076;-60
2023/12/29 05:04:11;;;;;;;20.63;12.90;;;;;;;;;;755039;181;918668;-68
2023/12/29 05:06:37;;;;;;;22.30;14.00;;;;;;;;;;761975;182;911701;-61
2023/12/29 05:09:03;;;;;;;19.50;10.93;;;;;;;;;;756922;181;919313;-61
2023/12/29 05:11:28;;;;;;;14.87;9.40;;;;;;;;;;754012;182;918283;-61
2023/12/29 05:13:54;;;;;;;17.57;10.07;;;;;;;;;;760272;182;925948;-60
2023/12/29 05:16:20;;;;;;;22.13;11.50;;;;;;;;;;755296;184;919877;-68
2023/12/29 05:18:46;;;;;;;16.33;10.63;;;;;;;;;;756841;181;917110;-61
2023/12/29 05:21:14;;;;;;;20.60;11.27;;;;;;;;;;761672;181;816046;-61
2023/12/29 05:23:40;;;;;;;18.60;11.50;;;;;;;;;;754979;181;914006;-68
2023/12/29 05:26:05;;;;;;;20.88;11.50;;;;;;;;;;752276;183;999758;-61
2023/12/29 05:28:31;;;;;;;18.70;10.93;;;;;;;;;;754646;183;815127;-61
2023/12/29 05:30:59;;;;;;;20.23;11.70;;;;;;;;;;756027;182;919160;-68
2023/12/29 05:33:23;;;;;;;23.13;12.70;;;;;;;;;;760737;181;919114;-61
2023/12/29 05:35:49;;;;;;;19.70;11.27;;;;;;;;;;755850;182;917591;-69
2023/12/29 05:38:15;;;;;;;22.03;11.87;;;;;;;;;;761979;181;900883;-60
2023/12/29 05:40:40;;;;;;;17.83;11.40;;;;;;;;;;754546;181;1021382;-68
2023/12/29 05:43:06;;;;;;;19.75;12.35;;;;;;;;;;738052;186;922190;-61
2023/12/29 05:45:32;;;;;;;20.77;13.80;;;;;;;;;;762931;181;840272;-68
2023/12/29 05:47:58;;;;;;;18.43;11.13;;;;;;;;;;754798;182;828178;-69
2023/12/29 05:50:24;;;;;;;18.07;11.83;;;;;;;;;;756760;182;918859;-68
2023/12/29 05:52:51;;;;;;;22.48;11.45;;;;;;;;;;759827;181;915886;-61
2023/12/29 05:55:16;;;;;;;18.00;12.57;;;;;;;;;;757166;181;913273;-68
2023/12/29 05:57:41;;;;;;;16.80;11.50;;;;;;;;;;754740;181;917077;-68
2023/12/29 06:00:14;;;;;;;17.07;11.57;;;;;;;;;;753089;184;817387;-68
2023/12/29 06:02:34;;;;;;;17.47;10.73;;;;;;;;;;763012;180;806888;-70
2023/12/29 06:05:00;;;;;;;18.43;10.10;;;;;;;;;;764015;181;950447;-61
2023/12/29 06:07:25;;;;;;;17.98;11.52;;;;;;;;;;763533;179;915907;-60
2023/12/29 06:09:51;;;;;;;15.40;10.67;;;;;;;;;;759468;181;863306;-68
2023/12/29 06:12:17;;;;;;;19.33;12.30;;;;;;;;;;757054;179;918386;-69
2023/12/29 06:14:43;;;;;;;13.33;9.93;;;;;;;;;;752913;183;923057;-60
2023/12/29 06:17:09;;;;;;;16.27;8.80;;;;;;;;;;761642;181;836919;-60
2023/12/29 06:19:35;;;;;;;18.07;9.17;;;;;;;;;;755711;184;1020930;-61
2023/12/29 06:22:00;;;;;;;13.83;9.77;;;;;;;;;;755886;182;809249;-69
2023/12/29 06:24:27;;;;;;;14.50;10.10;;;;;;;;;;754678;182;917444;-68
2023/12/29 06:26:53;;;;;;;15.43;9.00;;;;;;;;;;759619;178;919327;-60
2023/12/29 06:29:18;;;;;;;18.60;10.75;;;;;;;;;;754927;182;912470;-60
2023/12/29 06:31:44;;;;;;;17.77;10.47;;;;;;;;;;761968;182;910824;-68
2023/12/29 06:34:10;;;;;;;14.20;9.00;;;;;;;;;;762325;181;916122;-69
2023/12/29 06:36:36;;;;;;;13.33;9.47;;;;;;;;;;756208;178;923032;-61
2023/12/29 06:39:01;;;;;;;15.50;8.73;;;;;;;;;;755886;181;1008176;-68
2023/12/29 06:41:27;;;;;;;13.77;9.70;;;;;;;;;;764318;181;915931;-68
2023/12/29 06:43:53;;;;;;;21.65;11.02;;;;;;;;;;754291;183;918595;-61
2023/12/29 06:46:19;;;;;;;12.40;8.40;;;;;;;;;;756393;182;818134;-67
2023/12/29 06:48:45;;;;;;;12.60;8.27;;;;;;;;;;759152;184;906179;-60
2023/12/29 06:51:11;;;;;;;15.43;8.17;;;;;;;;;;756138;183;917649;-68
2023/12/29 06:53:36;;;;;;;15.50;8.50;;;;;;;;;;745883;186;1021456;-69
2023/12/29 06:56:02;;;;;;;12.83;8.40;;;;;;;;;;752841;181;918820;-68
2023/12/29 06:58:28;;;;;;;14.90;8.47;;;;;;;;;;760264;183;920724;-61
2023/12/29 07:00:54;;;;;;;16.73;7.20;;;;;;;;;;757900;182;817885;-60
2023/12/29 07:03:20;;;;;;;12.40;6.97;;;;;;;;;;752345;183;936143;-61
2023/12/29 07:05:46;;;;;;;13.03;8.90;;;;;;;;;;760096;181;961837;-69
2023/12/29 07:08:12;;;;;;;16.03;8.10;;;;;;;;;;755835;181;917486;-69
2023/12/29 07:10:38;;;;;;;14.95;8.32;;;;;;;;;;752759;182;920451;-60
2023/12/29 07:13:04;;;;;;;11.03;6.90;;;;;;;;;;759398;182;910378;-69
2023/12/29 07:15:30;;;;;;;13.53;8.27;;;;;;;;;;758558;181;918760;-60
2023/12/29 07:17:56;;;;;;;14.20;7.90;;;;;;;;;;754900;184;918325;-69
2023/12/29 07:20:22;;;;;;;10.80;7.93;;;;;;;;;;759779;181;919219;-68
2023/12/29 07:22:47;;;;;;;9.87;7.17;;;;;;;;;;764477;181;816476;-60
2023/12/29 07:25:13;;;;;;;12.80;7.73;;;;;;;;;;758290;181;816803;-69
2023/12/29 07:27:39;;;;;;;13.83;7.80;;;;;;;;;;754306;185;813081;-60
2023/12/29 07:30:06;;;;;;;16.27;8.10;;;;;;;;;;731569;188;930400;-61
2023/12/29 07:32:31;;;;;;;12.50;6.60;;;;;;;;;;753890;183;919297;-68
2023/12/29 07:34:58;;;;;;;14.53;7.40;;;;;;;;;;754779;182;922037;-69
2023/12/29 07:37:23;;;;;;;9.33;6.03;;;;;;;;;;758408;183;823352;-61
2023/12/29 07:39:49;;;;;;;10.98;7.07;;;;;;;;;;755826;182;919039;-69
2023/12/29 07:42:17;;;;;;;12.70;7.30;;;;;;;;;;753963;183;919917;-69
2023/12/29 07:44:41;;;;;;;11.00;7.30;;;;;;;;;;752930;183;920427;-61
2023/12/29 07:47:06;;;;;;;9.87;5.50;;;;;;;;;;752110;185;917682;-60
2023/12/29 07:49:32;;;;;;;13.37;6.10;;;;;;;;;;760837;181;919032;-69
2023/12/29 07:51:59;;;;;;;13.13;7.53;;;;;;;;;;752710;182;918982;-69
2023/12/29 07:54:24;;;;;;;10.77;6.20;;;;;;;;;;759803;184;700776;-60
2023/12/29 07:56:50;;;;;;;11.60;7.17;;;;;;;;;;758650;178;919258;-68
2023/12/29 07:59:16;;;;;;;10.30;6.75;;;;;;;;;;755581;181;919408;-69
2023/12/29 08:01:41;;;;;;;15.87;7.37;;;;;;;;;;757532;184;913209;-60
2023/12/29 08:04:07;;;;;;;15.63;7.23;;;;;;;;;;756347;182;919190;-68
2023/12/29 08:06:33;;;;;;;9.00;5.70;;;;;;;;;;760256;181;919031;-69
2023/12/29 08:08:59;;;;;;;12.60;6.80;;;;;;;;;;760047;181;915810;-70
2023/12/29 08:11:25;;;;;;;10.17;7.23;;;;;;;;;;756460;181;918672;-60
2023/12/29 08:13:51;;;;;;;10.80;6.87;;;;;;;;;;756775;181;920945;-60
2023/12/29 08:16:18;;;;;;;11.20;6.33;;;;;;;;;;753774;181;916179;-60
2023/12/29 08:18:43;;;;;;;12.05;6.85;;;;;;;;;;758169;177;916840;-69
2023/12/29 08:21:09;;;;;;;8.70;6.00;;;;;;;;;;756585;183;875613;-68
2023/12/29 08:23:35;;;;;;;9.45;6.20;;;;;;;;;;747229;184;919638;-68
2023/12/29 08:26:01;;;;;;;13.70;6.93;;;;;;;;;;773466;180;658417;-60
2023/12/29 08:28:27;;;;;;;10.47;7.10;;;;;;;;;;755130;184;918845;-60
2023/12/29 08:30:52;;;;;;;11.77;6.63;;;;;;;;;;755741;182;918995;-60
2023/12/29 08:33:18;;;;;;;13.03;7.00;;;;;;;;;;762342;180;822982;-69
2023/12/29 08:35:45;;;;;;;10.40;6.60;;;;;;;;;;762734;181;916559;-60
2023/12/29 08:38:10;;;;;;;10.83;7.40;;;;;;;;;;751307;184;993443;-60
2023/12/29 08:40:36;;;;;;;12.47;7.23;;;;;;;;;;755855;181;821144;-61
2023/12/29 08:43:02;;;;;;;9.83;6.53;;;;;;;;;;755669;181;822758;-60
2023/12/29 08:45:28;;;;;;;12.53;6.63;;;;;;;;;;755800;182;922109;-69
2023/12/29 08:47:54;;;;;;;8.73;6.97;;;;;;;;;;759158;182;918950;-60
2023/12/29 08:50:19;;;;;;;10.80;6.60;;;;;;;;;;761583;181;758761;-70
2023/12/29 08:52:45;;;;;;;10.93;5.77;;;;;;;;;;753753;181;904341;-60
2023/12/29 08:55:11;;;;;;;18.93;7.33;;;;;;;;;;729225;189;917731;-69
2023/12/29 08:57:37;;;;;;;9.80;6.87;;;;;;;;;;763398;181;641250;-69
2023/12/29 09:00:03;;;;;;;10.07;6.57;;;;;;;;;;757264;182;634864;-69
2023/12/29 09:02:29;;;;;;;9.00;6.00;;;;;;;;;;755907;181;918537;-70
2023/12/29 09:04:54;;;;;;;9.40;6.90;;;;;;;;;;759205;183;632952;-69
2023/12/29 09:07:20;;;;;;;11.20;7.13;;;;;;;;;;738835;185;629328;-69
2023/12/29 09:09:46;;;;;;;13.40;6.77;;;;;;;;;;734742;186;629284;-60
2023/12/29 09:12:12;;;;;;;11.27;7.07;;;;;;;;;;736599;186;620115;-69
2023/12/29 09:14:38;;;;;;;11.67;6.97;;;;;;;;;;740848;189;880049;-60
2023/12/29 09:17:05;;;;;;;11.03;7.40;;;;;;;;;;740282;184;913150;-60
2023/12/29 09:19:29;;;;;;;10.60;7.70;;;;;;;;;;756863;182;913041;-70
2023/12/29 09:21:55;;;;;;;10.70;7.27;;;;;;;;;;760334;183;853689;-60
2023/12/29 09:24:21;;;;;;;10.80;7.10;;;;;;;;;;753776;181;914123;-60
2023/12/29 09:26:47;;;;;;;13.30;7.43;;;;;;;;;;753124;181;945554;-60
2023/12/29 09:29:13;;;;;;;8.88;6.70;;;;;;;;;;758575;183;914948;-60
2023/12/29 09:31:39;;;;;;;9.83;6.80;;;;;;;;;;755668;183;625457;-60
2023/12/29 09:34:05;;;;;;;13.90;6.43;;;;;;;;;;760852;182;627007;-60
2023/12/29 09:36:30;;;;;;;10.33;7.27;;;;;;;;;;766615;177;636266;-62
2023/12/29 09:38:56;;;;;;;11.83;7.50;;;;;;;;;;757523;181;921846;-60
2023/12/29 09:41:22;;;;;;;10.90;6.60;;;;;;;;;;755990;182;918911;-60
2023/12/29 09:43:48;;;;;;;9.73;6.20;;;;;;;;;;741760;182;919013;-60
2023/12/29 09:46:14;;;;;;;11.97;8.00;;;;;;;;;;769508;181;817468;-60
2023/12/29 09:48:40;;;;;;;13.93;7.93;;;;;;;;;;754891;181;918634;-67
2023/12/29 09:51:06;;;;;;;19.23;10.60;;;;;;;;;;753977;181;922475;-69
2023/12/29 09:53:31;;;;;;;12.00;7.50;;;;;;;;;;766322;181;919341;-69
2023/12/29 09:55:58;;;;;;;12.00;7.50;;;;;;;;;;756309;181;910738;-60
2023/12/29 09:58:25;;;;;;;10.80;6.57;;;;;;;;;;755299;182;924805;-60
2023/12/29 10:00:49;;;;;;;10.67;6.27;;;;;;;;;;755887;183;919645;-69
2023/12/29 10:03:15;;;;;;;10.30;6.70;;;;;;;;;;744412;186;824056;-61
2023/12/29 10:05:40;;;;;;;9.30;6.40;;;;;;;;;;749208;183;832109;-60
2023/12/29 10:08:08;;;;;;;6.20;4.43;;;;;;;;;;750627;185;918017;-60
2023/12/29 10:10:32;;;;;;;7.90;5.57;;;;;;;;;;764164;177;816290;-69
2023/12/29 10:12:58;;;;;;;6.80;4.57;;;;;;;;;;756956;183;919204;-70
2023/12/29 10:15:24;;;;;;;6.97;5.00;;;;;;;;;;746533;185;915978;-69
2023/12/29 10:17:53;;;;;;;6.43;3.73;;;;;;;;;;762379;181;845829;-61
2023/12/29 10:20:23;;;;;;;8.13;4.70;;;;;;;;;;754259;181;838224;-60
2023/12/29 10:23:06;;;;;;;6.50;3.57;;;;;;;;;;752869;183;917603;-71
2023/12/29 10:25:31;;;;;;;4.93;4.03;;;;;;;;;;747213;183;918903;-69
2023/12/29 10:27:57;;;;;;;5.70;3.60;;;;;;;;;;757863;181;918920;-69
2023/12/29 10:30:22;;;;;;;5.63;4.10;;;;;;;;;;753505;184;803113;-69
2023/12/29 10:32:49;;;;;;;6.32;3.92;;;;;;;;;;764260;181;919638;-60
2023/12/29 10:35:15;;;;;;;6.37;3.57;;;;;;;;;;758634;181;1017975;-68
2023/12/29 10:37:41;;;;;;;7.78;3.70;;;;;;;;;;756281;184;809535;-60
2023/12/29 10:40:07;;;;;;;7.23;3.87;;;;;;;;;;758297;182;625314;-70
2023/12/29 10:42:33;;;;;;;8.03;4.27;;;;;;;;;;756806;182;938993;-61
2023/12/29 10:45:04;;;;;;;8.67;4.87;;;;;;;;;;760867;182;902057;-68
2023/12/29 10:47:30;;;;;;;5.37;3.80;;;;;;;;;;751746;185;625029;-59
2023/12/29 10:49:56;;;;;;;8.13;3.90;;;;;;;;;;763134;181;923378;-60
2023/12/29 10:52:22;;;;;;;7.40;3.60;;;;;;;;;;753565;181;925595;-69
2023/12/29 10:54:48;;;;;;;5.17;3.63;;;;;;;;;;758404;181;916337;-61
2023/12/29 10:57:14;;;;;;;7.43;4.00;;;;;;;;;;753517;181;921817;-61
2023/12/29 10:59:39;;;;;;;9.43;4.10;;;;;;;;;;753210;182;918299;-61
2023/12/29 11:02:08;;;;;;;6.80;3.70;;;;;;;;;;761085;182;904069;-70
2023/12/29 11:04:31;;;;;;;6.23;4.00;;;;;;;;;;748656;185;920041;-69
2023/12/29 11:06:57;;;;;;;7.80;4.57;;;;;;;;;;749735;185;862899;-61
2023/12/29 11:09:28;;;;;;;6.50;3.83;;;;;;;;;;761184;181;815163;-70
2023/12/29 11:11:53;;;;;;;6.47;5.30;;;;;;;;;;752731;185;944933;-69
2023/12/29 11:14:20;;;;;;;5.77;4.50;;;;;;;;;;760531;181;917431;-70
2023/12/29 11:16:45;;;;;;;8.77;4.83;;;;;;;;;;755912;181;923471;-70
2023/12/29 11:19:12;;;;;;;7.27;4.60;;;;;;;;;;758927;181;818822;-61
2023/12/29 11:21:37;;;;;;;15.30;4.40;;;;;;;;;;753581;181;917787;-71
2023/12/29 11:24:03;;;;;;;8.70;4.80;;;;;;;;;;755643;182;865320;-69
2023/12/29 11:26:28;;;;;;;6.67;3.90;;;;;;;;;;756987;182;815582;-69
2023/12/29 11:28:54;;;;;;;6.40;3.67;;;;;;;;;;753552;183;819479;-61
2023/12/29 11:31:20;;;;;;;6.40;4.10;;;;;;;;;;746205;184;919402;-60
2023/12/29 11:33:47;;;;;;;8.90;5.10;;;;;;;;;;761153;181;914365;-61
2023/12/29 11:36:13;;;;;;;9.60;5.40;;;;;;;;;;757436;182;918335;-60
2023/12/29 11:38:43;;;;;;;7.07;4.33;;;;;;;;;;757436;182;897978;-61
2023/12/29 11:41:11;;;;;;;9.43;4.57;;;;;;;;;;738064;186;920851;-70
2023/12/29 11:43:37;;;;;;;8.23;5.00;;;;;;;;;;762712;181;922538;-61
2023/12/29 11:46:03;;;;;;;8.97;5.20;;;;;;;;;;754339;181;919014;-69
2023/12/29 11:48:46;;;;;;;5.32;3.37;;;;;;;;;;753717;181;819319;-61
2023/12/29 11:51:18;;;;;;;7.33;3.93;;;;;;;;;;752217;182;918616;-70
2023/12/29 11:53:44;;;;;;;8.40;5.67;;;;;;;;;;754134;182;917192;-70
2023/12/29 11:56:14;;;;;;;7.73;5.30;;;;;;;;;;761135;182;948416;-61
2023/12/29 11:58:40;;;;;;;8.20;4.70;;;;;;;;;;754907;182;920418;-70
2023/12/29 12:01:06;;;;;;;7.90;4.10;;;;;;;;;;758169;181;929944;-62
2023/12/29 12:03:32;;;;;;;9.50;5.87;;;;;;;;;;762390;181;816369;-62
2023/12/29 12:05:59;;;;;;;7.83;4.27;;;;;;;;;;753051;182;918440;-61
2023/12/29 12:08:26;;;;;;;8.77;5.23;;;;;;;;;;760205;181;820854;-71
2023/12/29 12:10:52;;;;;;;7.30;4.77;;;;;;;;;;738610;185;919446;-70
2023/12/29 12:13:19;;;;;;;7.00;5.40;;;;;;;;;;753667;185;998613;-61
2023/12/29 12:15:45;;;;;;;7.33;4.87;;;;;;;;;;758532;181;920727;-70
2023/12/29 12:18:11;;;;;;;7.63;4.80;;;;;;;;;;755535;182;918508;-70
2023/12/29 12:20:36;;;;;;;6.57;4.60;;;;;;;;;;760600;182;880255;-70
2023/12/29 12:23:05;;;;;;;9.63;5.90;;;;;;;;;;757070;181;1010538;-70
2023/12/29 12:25:29;;;;;;;9.70;5.80;;;;;;;;;;755377;181;917283;-70
2023/12/29 12:27:56;;;;;;;8.80;5.30;;;;;;;;;;753539;181;913990;-62
2023/12/29 12:30:22;;;;;;;9.37;6.03;;;;;;;;;;750925;184;909104;-61
2023/12/29 12:33:02;;;;;;;7.17;4.57;;;;;;;;;;761238;181;916751;-61
2023/12/29 12:35:28;;;;;;;9.37;5.73;;;;;;;;;;755570;182;933643;-62
2023/12/29 12:38:00;;;;;;;6.90;4.23;;;;;;;;;;755037;182;816045;-62
2023/12/29 12:40:27;;;;;;;8.50;5.73;;;;;;;;;;761104;181;915024;-61
2023/12/29 12:42:52;;;;;;;8.17;5.03;;;;;;;;;;753431;181;956737;-63
2023/12/29 12:45:18;;;;;;;8.50;5.80;;;;;;;;;;762114;181;883273;-62
2023/12/29 12:47:45;;;;;;;9.00;4.90;;;;;;;;;;760764;181;917666;-61
2023/12/29 12:50:12;;;;;;;8.63;5.17;;;;;;;;;;742903;188;914473;-69
2023/12/29 12:52:37;;;;;;;6.40;4.23;;;;;;;;;;748063;183;916843;-60
2023/12/29 12:55:03;;;;;;;10.70;5.47;;;;;;;;;;755284;181;919235;-69
2023/12/29 12:57:29;;;;;;;7.50;5.00;;;;;;;;;;763803;181;815585;-68
2023/12/29 12:59:54;;;;;;;7.97;4.50;;;;;;;;;;760889;181;919170;-61
2023/12/29 13:02:21;;;;;;;9.90;5.23;;;;;;;;;;759885;181;909390;-59
2023/12/29 13:04:46;;;;;;;6.43;4.40;;;;;;;;;;755433;184;915787;-60
2023/12/29 13:07:12;;;;;;;9.43;5.47;;;;;;;;;;752839;182;919725;-68
2023/12/29 13:09:38;;;;;;;7.10;4.80;;;;;;;;;;753664;182;915277;-60
2023/12/29 13:12:08;;;;;;;8.30;5.37;;;;;;;;;;763063;180;817339;-60
2023/12/29 13:14:34;;;;;;;8.90;5.83;;;;;;;;;;743953;186;835604;-68
2023/12/29 13:17:00;;;;;;;7.63;5.13;;;;;;;;;;755416;179;913734;-70
2023/12/29 13:19:27;;;;;;;10.07;6.20;;;;;;;;;;749090;185;803824;-68
2023/12/29 13:21:54;;;;;;;14.57;6.60;;;;;;;;;;755810;185;629060;-68
2023/12/29 13:24:18;;;;;;;13.37;7.97;;;;;;;;;;747682;184;901030;-60
2023/12/29 13:26:43;;;;;;;8.03;5.40;;;;;;;;;;748617;185;835890;-60
2023/12/29 13:29:09;;;;;;;8.90;5.20;;;;;;;;;;752441;185;911273;-69
2023/12/29 13:31:35;;;;;;;8.13;4.53;;;;;;;;;;761006;181;918381;-60
2023/12/29 13:34:01;;;;;;;7.40;4.47;;;;;;;;;;762409;181;917323;-68
2023/12/29 13:36:27;;;;;;;6.33;4.77;;;;;;;;;;756697;183;817884;-68
2023/12/29 13:38:53;;;;;;;5.77;4.40;;;;;;;;;;750484;183;812770;-68
2023/12/29 13:41:18;;;;;;;6.30;4.47;;;;;;;;;;761100;181;837263;-60
2023/12/29 13:43:45;;;;;;;6.80;4.77;;;;;;;;;;757855;181;837054;-68
2023/12/29 13:46:10;;;;;;;6.60;4.30;;;;;;;;;;760503;181;928478;-60
2023/12/29 13:48:36;;;;;;;9.00;5.20;;;;;;;;;;759003;181;813352;-60
2023/12/29 13:51:02;;;;;;;7.05;4.00;;;;;;;;;;762381;178;908890;-61
2023/12/29 13:53:29;;;;;;;7.50;4.53;;;;;;;;;;759316;182;818321;-68
2023/12/29 13:55:53;;;;;;;8.53;4.70;;;;;;;;;;754046;182;817289;-60
2023/12/29 13:58:19;;;;;;;6.13;4.13;;;;;;;;;;761597;181;814226;-60
2023/12/29 14:00:45;;;;;;;6.83;4.07;;;;;;;;;;758808;181;861224;-68
2023/12/29 14:03:11;;;;;;;7.10;4.53;;;;;;;;;;749500;184;881623;-68
2023/12/29 14:05:39;;;;;;;7.20;4.50;;;;;;;;;;750054;184;904868;-68
2023/12/29 14:08:05;;;;;;;6.50;3.90;;;;;;;;;;747916;186;914052;-60